createdAt,value
2019-01-11T00:01:36.632Z,33.20
2019-01-11T00:04:05.694Z,31.23
2019-01-11T00:06:34.751Z,29.70
2019-01-11T00:09:03.838Z,28.40
2019-01-11T00:11:32.900Z,28.67
2019-01-11T00:14:01.969Z,30.97
2019-01-11T00:16:31.059Z,32.63
2019-01-11T00:19:00.116Z,32.23
2019-01-11T00:21:29.177Z,31.33
2019-01-11T00:24:02.746Z,31.67
2019-01-11T00:26:31.800Z,33.30
2019-01-11T00:29:00.882Z,39.23
2019-01-11T00:31:29.927Z,39.50
2019-01-11T00:33:58.993Z,41.43
2019-01-11T00:36:28.071Z,41.27
2019-01-11T00:38:57.132Z,42.07
2019-01-11T00:41:26.188Z,44.87
2019-01-11T00:43:55.288Z,40.40
2019-01-11T00:46:24.354Z,38.40
2019-01-11T00:48:53.406Z,36.43
2019-01-11T00:51:22.505Z,29.90
2019-01-11T00:53:51.568Z,29.90
2019-01-11T00:56:20.618Z,28.37
2019-01-11T00:58:49.697Z,28.27
2019-01-11T01:01:18.765Z,27.77
2019-01-11T01:03:47.809Z,27.40
2019-01-11T01:06:16.911Z,26.73
2019-01-11T01:08:45.966Z,22.70
2019-01-11T01:11:15.020Z,19.90
2019-01-11T01:13:44.115Z,17.57
2019-01-11T01:16:13.160Z,14.70
2019-01-11T01:18:42.221Z,11.17
2019-01-11T01:21:11.307Z,9.67
2019-01-11T01:23:40.359Z,9.03
2019-01-11T01:26:09.416Z,7.77
2019-01-11T01:28:38.511Z,7.63
2019-01-11T01:31:07.550Z,9.70
2019-01-11T01:33:36.621Z,11.20
2019-01-11T01:36:05.704Z,10.83
2019-01-11T01:38:34.760Z,10.27
2019-01-11T01:41:03.819Z,11.00
2019-01-11T01:43:32.907Z,10.73
2019-01-11T01:46:01.963Z,10.80
2019-01-11T01:48:31.016Z,11.30
2019-01-11T01:51:00.122Z,11.47
2019-01-11T01:53:29.173Z,11.87
2019-01-11T01:55:58.225Z,9.90
2019-01-11T01:58:27.312Z,9.33
2019-01-11T02:00:56.362Z,9.00
2019-01-11T02:03:25.399Z,7.67
2019-01-11T02:05:54.477Z,7.10
2019-01-11T02:08:23.526Z,4.97
2019-01-11T02:10:52.582Z,5.53
2019-01-11T02:13:21.678Z,5.70
2019-01-11T02:15:50.712Z,4.57
2019-01-11T02:18:19.756Z,4.30
2019-01-11T02:20:48.828Z,4.47
2019-01-11T02:23:17.863Z,3.73
2019-01-11T02:25:46.917Z,3.87
2019-01-11T02:28:15.983Z,3.87
2019-01-11T02:30:45.028Z,4.57
2019-01-11T02:33:14.070Z,4.47
2019-01-11T02:35:43.172Z,3.70
2019-01-11T02:38:12.208Z,3.43
2019-01-11T02:40:41.265Z,3.30
2019-01-11T02:43:10.326Z,3.20
2019-01-11T02:45:39.380Z,3.53
2019-01-11T02:48:08.426Z,3.60
2019-01-11T02:50:37.498Z,3.30
2019-01-11T02:53:06.529Z,2.70
2019-01-11T02:55:35.571Z,3.00
2019-01-11T02:58:04.675Z,2.80
2019-01-11T03:00:33.746Z,2.40
2019-01-11T03:03:02.760Z,2.57
2019-01-11T03:05:31.836Z,3.20
2019-01-11T03:08:00.880Z,2.70
2019-01-11T03:10:29.924Z,2.43
2019-01-11T03:12:59.002Z,2.87
2019-01-11T03:15:28.049Z,2.63
2019-01-11T03:17:57.112Z,2.50
2019-01-11T03:20:26.213Z,2.37
2019-01-11T03:22:55.247Z,2.47
2019-01-11T03:25:24.287Z,2.50
2019-01-11T03:27:53.361Z,3.63
2019-01-11T03:30:22.403Z,4.00
2019-01-11T03:32:51.450Z,3.70
2019-01-11T03:35:20.602Z,3.13
2019-01-11T03:37:49.650Z,3.80
2019-01-11T03:40:18.698Z,3.00
2019-01-11T03:42:47.810Z,3.30
2019-01-11T03:45:16.857Z,2.70
2019-01-11T03:47:45.909Z,3.20
2019-01-11T03:50:14.979Z,3.20
2019-01-11T03:52:44.019Z,3.03
2019-01-11T03:55:13.059Z,2.67
2019-01-11T03:57:42.137Z,3.30
2019-01-11T04:00:12.113Z,2.97
2019-01-11T04:02:41.157Z,2.37
2019-01-11T04:05:10.296Z,3.10
2019-01-11T04:07:40.126Z,2.83
2019-01-11T04:10:09.159Z,3.73
2019-01-11T04:12:38.241Z,6.13
2019-01-11T04:15:07.285Z,12.27
2019-01-11T04:17:36.333Z,8.27
2019-01-11T04:20:05.415Z,10.67
2019-01-11T04:22:34.460Z,7.90
2019-01-11T04:25:22.321Z,5.43
2019-01-11T04:27:51.550Z,7.87
2019-01-11T04:30:20.592Z,12.20
2019-01-11T04:32:49.763Z,10.03
2019-01-11T04:35:18.849Z,7.37
2019-01-11T04:37:47.886Z,4.20
2019-01-11T04:40:16.958Z,8.00
2019-01-11T04:42:46.020Z,4.80
2019-01-11T04:45:15.082Z,5.77
2019-01-11T04:47:44.173Z,4.80
2019-01-11T04:50:13.219Z,4.00
2019-01-11T04:52:42.270Z,4.43
2019-01-11T04:55:11.345Z,2.70
2019-01-11T04:57:40.394Z,3.63
2019-01-11T05:00:25.525Z,3.63
2019-01-11T05:02:54.564Z,5.03
2019-01-11T05:05:23.602Z,7.00
2019-01-11T05:07:53.589Z,5.30
2019-01-11T05:10:22.633Z,3.57
2019-01-11T05:12:51.675Z,4.90
2019-01-11T05:15:38.653Z,4.60
2019-01-11T05:18:07.692Z,4.60
2019-01-11T05:20:36.731Z,4.00
2019-01-11T05:23:05.917Z,8.07
2019-01-11T05:25:34.969Z,6.93
2019-01-11T05:28:04.022Z,6.60
2019-01-11T05:30:33.110Z,14.03
2019-01-11T05:33:02.166Z,11.73
2019-01-11T05:35:31.234Z,14.60
2019-01-11T05:38:00.331Z,7.13
2019-01-11T05:40:29.424Z,15.40
2019-01-11T05:42:58.486Z,15.50
2019-01-11T05:45:27.590Z,10.30
2019-01-11T05:47:56.668Z,20.13
2019-01-11T05:50:25.714Z,5.90
2019-01-11T05:52:54.790Z,5.13
2019-01-11T05:55:23.828Z,5.10
2019-01-11T05:57:53.682Z,5.90
2019-01-11T06:00:22.775Z,10.27
2019-01-11T06:02:51.827Z,7.73
2019-01-11T06:05:20.890Z,11.77
2019-01-11T06:07:49.998Z,5.80
2019-01-11T06:10:19.855Z,9.90
2019-01-11T06:12:48.908Z,13.10
2019-01-11T06:15:18.007Z,10.87
2019-01-11T06:17:47.308Z,15.83
2019-01-11T06:20:16.383Z,12.23
2019-01-11T06:22:45.462Z,9.83
2019-01-11T06:25:14.517Z,7.73
2019-01-11T06:27:43.586Z,10.07
2019-01-11T06:30:12.865Z,10.03
2019-01-11T06:32:41.927Z,10.03
2019-01-11T06:35:35.827Z,9.33
2019-01-11T06:38:04.878Z,10.03
2019-01-11T06:40:33.964Z,7.63
2019-01-11T06:43:03.634Z,8.63
2019-01-11T06:45:32.072Z,13.50
2019-01-11T06:48:01.302Z,25.03
2019-01-11T06:50:36.272Z,25.03
2019-01-11T06:52:59.434Z,15.73
2019-01-11T06:55:28.532Z,16.90
2019-01-11T06:57:57.591Z,17.00
2019-01-11T07:00:26.653Z,15.60
2019-01-11T07:02:55.747Z,15.33
2019-01-11T07:05:24.806Z,19.07
2019-01-11T07:07:53.875Z,15.97
2019-01-11T07:10:23.818Z,14.80
2019-01-11T07:12:52.880Z,16.63
2019-01-11T07:15:41.129Z,15.77
2019-01-11T07:18:10.185Z,12.30
2019-01-11T07:20:42.911Z,10.43
2019-01-11T07:23:08.341Z,9.43
2019-01-11T07:25:37.405Z,10.40
2019-01-11T07:28:06.454Z,10.77
2019-01-11T07:30:35.546Z,8.47
2019-01-11T07:33:04.616Z,10.23
2019-01-11T07:35:34.644Z,10.67
2019-01-11T07:38:03.726Z,13.30
2019-01-11T07:40:32.776Z,13.73
2019-01-11T07:43:01.838Z,10.67
2019-01-11T07:45:30.930Z,11.00
2019-01-11T07:47:59.983Z,9.87
2019-01-11T07:50:29.041Z,9.70
2019-01-11T07:52:58.159Z,11.97
2019-01-11T07:55:27.209Z,10.53
2019-01-11T07:57:56.267Z,9.23
2019-01-11T08:00:25.345Z,8.47
2019-01-11T08:02:54.405Z,8.57
2019-01-11T08:05:23.479Z,9.23
2019-01-11T08:07:52.527Z,7.70
2019-01-11T08:10:21.574Z,8.87
2019-01-11T08:12:50.630Z,9.20
2019-01-11T08:15:19.724Z,8.77
2019-01-11T08:17:48.768Z,7.20
2019-01-11T08:20:17.805Z,8.83
2019-01-11T08:22:46.890Z,7.67
2019-01-11T08:25:15.925Z,7.23
2019-01-11T08:27:44.970Z,7.50
2019-01-11T08:30:14.111Z,8.77
2019-01-11T08:32:43.155Z,7.90
2019-01-11T08:35:23.362Z,7.20
2019-01-11T08:37:52.419Z,10.77
2019-01-11T08:40:21.478Z,14.33
2019-01-11T08:42:50.593Z,9.50
2019-01-11T08:45:19.607Z,6.87
2019-01-11T08:47:48.654Z,8.10
2019-01-11T08:50:18.597Z,8.40
2019-01-11T08:52:47.645Z,10.90
2019-01-11T08:55:16.707Z,8.23
2019-01-11T08:57:46.181Z,9.13
2019-01-11T09:00:15.260Z,7.90
2019-01-11T09:02:44.318Z,6.73
2019-01-11T09:05:13.384Z,6.07
2019-01-11T09:07:42.431Z,7.13
2019-01-11T09:10:11.489Z,6.83
2019-01-11T09:12:41.361Z,8.00
2019-01-11T09:15:10.424Z,6.20
2019-01-11T09:17:43.455Z,6.10
2019-01-11T09:20:12.504Z,6.47
2019-01-11T09:22:41.546Z,6.27
2019-01-11T09:25:10.616Z,6.20
2019-01-11T09:27:39.680Z,6.67
2019-01-11T09:30:08.727Z,6.77
2019-01-11T09:32:37.811Z,5.87
2019-01-11T09:35:06.854Z,6.30
2019-01-11T09:37:35.902Z,6.97
2019-01-11T09:40:05.044Z,7.37
2019-01-11T09:42:34.099Z,10.93
2019-01-11T09:45:03.132Z,6.37
2019-01-11T09:47:32.209Z,6.63
2019-01-11T09:50:01.310Z,16.07
2019-01-11T09:52:30.358Z,7.40
2019-01-11T09:54:59.445Z,8.20
2019-01-11T09:57:28.484Z,6.50
2019-01-11T09:59:57.530Z,7.70
2019-01-11T10:02:32.178Z,6.87
2019-01-11T10:05:01.174Z,6.43
2019-01-11T10:07:30.230Z,6.63
2019-01-11T10:09:59.316Z,6.90
2019-01-11T10:12:28.367Z,7.23
2019-01-11T10:14:58.239Z,6.97
2019-01-11T10:17:27.351Z,9.33
2019-01-11T10:19:56.381Z,8.20
2019-01-11T10:22:25.419Z,7.10
2019-01-11T10:24:54.561Z,8.40
2019-01-11T10:27:23.613Z,7.47
2019-01-11T10:29:52.666Z,7.30
2019-01-11T10:32:21.754Z,6.93
2019-01-11T10:34:50.788Z,5.80
2019-01-11T10:37:19.830Z,6.17
2019-01-11T10:39:48.906Z,6.80
2019-01-11T10:42:17.963Z,7.60
2019-01-11T10:44:47.019Z,15.93
2019-01-11T10:47:16.119Z,38.57
2019-01-11T10:49:45.190Z,128.60
2019-01-11T10:52:14.244Z,47.93
2019-01-11T10:55:01.308Z,32.37
2019-01-11T10:57:30.362Z,15.53
2019-01-11T10:59:59.401Z,7.10
2019-01-11T11:02:28.541Z,7.73
2019-01-11T11:04:57.589Z,7.17
2019-01-11T11:07:26.626Z,7.47
2019-01-11T11:09:55.704Z,7.33
2019-01-11T11:12:24.758Z,10.70
2019-01-11T11:14:53.798Z,10.37
2019-01-11T11:17:22.892Z,7.27
2019-01-11T11:19:51.938Z,7.17
2019-01-11T11:22:20.974Z,6.40
2019-01-11T11:24:50.080Z,6.37
2019-01-11T11:27:19.135Z,8.80
2019-01-11T11:29:48.198Z,15.83
2019-01-11T11:32:17.281Z,11.73
2019-01-11T11:34:46.359Z,14.63
2019-01-11T11:37:17.802Z,8.77
2019-01-11T11:39:44.494Z,9.33
2019-01-11T11:42:16.845Z,8.37
2019-01-11T11:44:42.882Z,9.30
2019-01-11T11:47:11.978Z,9.47
2019-01-11T11:49:41.038Z,16.53
2019-01-11T11:52:10.095Z,37.50
2019-01-11T11:54:39.209Z,41.23
2019-01-11T11:57:08.273Z,40.13
2019-01-11T11:59:37.319Z,60.93
2019-01-11T12:02:06.392Z,38.57
2019-01-11T12:04:35.452Z,72.73
2019-01-11T12:07:07.625Z,19.63
2019-01-11T12:09:33.618Z,33.93
2019-01-11T12:12:02.682Z,38.40
2019-01-11T12:14:56.010Z,24.43
2019-01-11T12:17:25.053Z,23.83
2019-01-11T12:19:57.042Z,16.63
2019-01-11T12:22:23.181Z,17.13
2019-01-11T12:25:17.904Z,9.53
2019-01-11T12:27:47.361Z,11.77
2019-01-11T12:30:16.229Z,13.27
2019-01-11T12:32:45.283Z,21.57
2019-01-11T12:35:14.328Z,13.13
2019-01-11T12:37:43.412Z,13.67
2019-01-11T12:40:12.468Z,13.47
2019-01-11T12:42:41.533Z,16.53
2019-01-11T12:45:10.659Z,11.30
2019-01-11T12:47:39.722Z,13.27
2019-01-11T12:50:08.793Z,13.60
2019-01-11T12:52:37.874Z,15.33
2019-01-11T12:55:06.986Z,13.17
2019-01-11T12:57:36.043Z,23.33
2019-01-11T13:00:05.129Z,15.77
2019-01-11T13:02:34.180Z,34.33
2019-01-11T13:05:03.235Z,15.80
2019-01-11T13:07:32.329Z,30.40
2019-01-11T13:10:01.391Z,24.40
2019-01-11T13:12:30.442Z,10.60
2019-01-11T13:14:59.525Z,16.63
2019-01-11T13:17:29.626Z,23.03
2019-01-11T13:19:58.678Z,12.60
2019-01-11T13:22:27.798Z,14.40
2019-01-11T13:24:56.851Z,11.90
2019-01-11T13:27:25.899Z,12.27
2019-01-11T13:29:54.997Z,15.63
2019-01-11T13:32:24.070Z,21.87
2019-01-11T13:34:53.133Z,16.10
2019-01-11T13:37:22.212Z,20.50
2019-01-11T13:39:51.292Z,14.57
2019-01-11T13:42:20.354Z,14.97
2019-01-11T13:44:49.464Z,27.63
2019-01-11T13:47:18.535Z,13.00
2019-01-11T13:49:47.601Z,11.43
2019-01-11T13:52:16.738Z,14.10
2019-01-11T13:54:45.793Z,19.83
2019-01-11T13:57:14.855Z,8.43
2019-01-11T13:59:43.947Z,10.17
2019-01-11T14:02:12.993Z,14.50
2019-01-11T14:04:42.074Z,15.77
2019-01-11T14:07:11.315Z,24.67
2019-01-11T14:09:40.382Z,12.40
2019-01-11T14:12:09.439Z,31.47
2019-01-11T14:14:38.520Z,23.53
2019-01-11T14:17:07.583Z,16.13
2019-01-11T14:19:37.470Z,24.37
2019-01-11T14:22:06.558Z,12.07
2019-01-11T14:24:35.626Z,34.63
2019-01-11T14:27:04.677Z,23.60
2019-01-11T14:29:33.808Z,18.43
2019-01-11T14:32:02.870Z,13.43
2019-01-11T14:34:31.927Z,10.37
2019-01-11T14:37:01.021Z,10.60
2019-01-11T14:39:31.016Z,10.47
2019-01-11T14:42:00.059Z,9.20
2019-01-11T14:44:29.152Z,12.97
2019-01-11T14:46:58.200Z,15.77
2019-01-11T14:49:27.252Z,10.80
2019-01-11T14:51:56.334Z,97.27
2019-01-11T14:54:33.443Z,41.07
2019-01-11T14:57:02.572Z,22.60
2019-01-11T14:59:31.618Z,20.20
2019-01-11T15:02:00.650Z,13.97
2019-01-11T15:04:29.736Z,15.37
2019-01-11T15:06:58.792Z,23.43
2019-01-11T15:09:27.850Z,19.60
2019-01-11T15:11:56.978Z,15.17
2019-01-11T15:14:26.038Z,16.87
2019-01-11T15:16:55.094Z,20.70
2019-01-11T15:19:24.173Z,24.00
2019-01-11T15:21:53.237Z,41.23
2019-01-11T15:24:22.293Z,45.73
2019-01-11T15:26:51.427Z,38.00
2019-01-11T15:29:20.488Z,34.27
2019-01-11T15:31:49.537Z,39.60
2019-01-11T15:34:19.454Z,22.93
2019-01-11T15:36:48.508Z,22.70
2019-01-11T15:39:17.562Z,48.67
2019-01-11T15:41:46.640Z,46.73
2019-01-11T15:44:15.685Z,32.13
2019-01-11T15:46:44.746Z,21.33
2019-01-11T15:49:13.830Z,23.87
2019-01-11T15:51:42.878Z,25.63
2019-01-11T15:54:24.186Z,32.40
2019-01-11T15:56:53.235Z,50.67
2019-01-11T15:59:22.289Z,34.67
2019-01-11T16:01:51.376Z,23.53
2019-01-11T16:04:20.442Z,26.40
2019-01-11T16:06:49.507Z,26.03
2019-01-11T16:09:20.398Z,29.27
2019-01-11T16:11:52.050Z,43.30
2019-01-11T16:14:28.735Z,33.37
2019-01-11T16:16:57.797Z,23.17
2019-01-11T16:19:26.874Z,38.30
2019-01-11T16:21:56.758Z,23.37
2019-01-11T16:24:25.815Z,23.43
2019-01-11T16:26:54.882Z,19.93
2019-01-11T16:29:23.967Z,22.90
2019-01-11T16:31:53.036Z,34.97
2019-01-11T16:37:27.084Z,47.37
2019-01-11T16:39:56.241Z,35.57
2019-01-11T16:42:25.312Z,44.37
2019-01-11T16:45:09.579Z,44.03
2019-01-11T16:47:38.632Z,46.33
2019-01-11T16:50:07.681Z,28.97
2019-01-11T16:52:36.786Z,26.73
2019-01-11T16:55:05.857Z,42.77
2019-01-11T16:57:34.913Z,22.60
2019-01-11T17:00:03.995Z,21.57
2019-01-11T17:02:36.595Z,21.03
2019-01-11T17:05:02.171Z,21.33
2019-01-11T17:07:31.268Z,17.57
2019-01-11T17:10:00.400Z,18.27
2019-01-11T17:12:29.401Z,74.57
2019-01-11T17:14:58.530Z,87.27
2019-01-11T17:17:27.586Z,60.10
2019-01-11T17:19:56.653Z,63.07
2019-01-11T17:22:25.761Z,47.87
2019-01-11T17:24:54.861Z,28.53
2019-01-11T17:27:23.946Z,28.13
2019-01-11T17:29:53.060Z,25.83
2019-01-11T17:32:22.194Z,26.00
2019-01-11T17:34:51.254Z,19.13
2019-01-11T17:37:20.425Z,26.07
2019-01-11T17:39:49.526Z,156.43
2019-01-11T17:42:18.590Z,235.40
2019-01-11T17:45:12.203Z,350.90
2019-01-11T17:47:41.271Z,76.20
2019-01-11T17:50:14.866Z,86.00
2019-01-11T17:52:44.133Z,71.83
2019-01-11T17:55:13.239Z,38.67
2019-01-11T17:57:42.296Z,36.03
2019-01-11T18:00:11.363Z,24.37
2019-01-11T18:02:40.450Z,29.03
2019-01-11T18:05:14.927Z,19.53
2019-01-11T18:07:44.022Z,30.20
2019-01-11T18:10:13.957Z,24.93
2019-01-11T18:12:42.147Z,43.97
2019-01-11T18:15:11.251Z,281.83
2019-01-11T18:17:40.320Z,240.53
2019-01-11T18:20:10.836Z,190.57
2019-01-11T18:22:40.001Z,107.27
2019-01-11T18:25:09.074Z,87.30
2019-01-11T18:27:38.141Z,71.07
2019-01-11T18:30:08.206Z,45.63
2019-01-11T18:32:37.267Z,36.00
2019-01-11T18:35:06.362Z,40.77
2019-01-11T18:37:35.454Z,32.03
2019-01-11T18:40:04.512Z,30.50
2019-01-11T18:42:33.566Z,23.50
2019-01-11T18:45:02.669Z,16.93
2019-01-11T18:47:31.728Z,17.10
2019-01-11T18:50:00.777Z,15.30
2019-01-11T18:52:29.890Z,13.83
2019-01-11T18:54:58.948Z,14.57
2019-01-11T18:57:28.007Z,11.10
2019-01-11T18:59:57.136Z,13.07
2019-01-11T19:02:26.152Z,14.00
2019-01-11T19:04:55.205Z,10.43
2019-01-11T19:07:24.831Z,11.33
2019-01-11T19:09:54.018Z,10.30
2019-01-11T19:12:23.198Z,22.80
2019-01-11T19:14:52.231Z,13.87
2019-01-11T19:17:21.281Z,12.53
2019-01-11T19:19:50.351Z,10.17
2019-01-11T19:22:19.445Z,22.63
2019-01-11T19:24:48.515Z,23.97
2019-01-11T19:27:17.577Z,21.23
2019-01-11T19:29:46.656Z,22.43
2019-01-11T19:32:15.710Z,38.90
2019-01-11T19:34:44.762Z,35.53
2019-01-11T19:37:13.884Z,35.03
2019-01-11T19:39:42.956Z,52.80
2019-01-11T19:42:12.023Z,54.00
2019-01-11T19:44:41.120Z,53.47
2019-01-11T19:47:10.192Z,53.00
2019-01-11T19:49:39.252Z,40.93
2019-01-11T19:52:08.334Z,30.03
2019-01-11T19:54:41.714Z,16.70
2019-01-11T19:57:10.821Z,14.23
2019-01-11T19:59:39.877Z,10.33
2019-01-11T20:02:08.946Z,12.40
2019-01-11T20:04:38.031Z,16.63
2019-01-11T20:07:07.099Z,15.70
2019-01-11T20:09:36.154Z,19.70
2019-01-11T20:12:05.259Z,17.73
2019-01-11T20:14:34.314Z,17.43
2019-01-11T20:17:03.375Z,18.50
2019-01-11T20:19:32.486Z,19.60
2019-01-11T20:22:01.544Z,21.60
2019-01-11T20:24:30.642Z,21.13
2019-01-11T20:26:59.723Z,24.40
2019-01-11T20:29:28.770Z,18.67
2019-01-11T20:31:57.821Z,20.30
2019-01-11T20:34:26.895Z,18.33
2019-01-11T20:36:55.965Z,18.33
2019-01-11T20:39:25.019Z,17.63
2019-01-11T20:41:54.142Z,17.07
2019-01-11T20:44:27.859Z,22.27
2019-01-11T20:46:56.953Z,28.20
2019-01-11T20:49:26.037Z,30.23
2019-01-11T20:51:55.102Z,28.83
2019-01-11T20:54:24.193Z,27.40
2019-01-11T20:56:53.254Z,27.17
2019-01-11T20:59:22.318Z,29.80
2019-01-11T21:01:51.472Z,48.80
2019-01-11T21:04:20.544Z,28.17
2019-01-11T21:06:49.637Z,19.27
2019-01-11T21:09:18.718Z,19.70
2019-01-11T21:11:47.787Z,21.33
2019-01-11T21:14:16.851Z,22.07
2019-01-11T21:16:45.939Z,25.40
2019-01-11T21:19:15.009Z,29.70
2019-01-11T21:21:44.056Z,32.33
2019-01-11T21:24:13.206Z,41.93
2019-01-11T21:26:42.519Z,43.00
2019-01-11T21:29:11.594Z,44.60
2019-01-11T21:31:40.692Z,41.23
2019-01-11T21:34:09.800Z,35.80
2019-01-11T21:36:38.964Z,31.93
2019-01-11T21:39:08.082Z,28.60
2019-01-11T21:41:37.185Z,26.30
2019-01-11T21:44:06.249Z,25.60
2019-01-11T21:46:35.341Z,26.60
2019-01-11T21:49:04.401Z,27.20
2019-01-11T21:51:33.468Z,29.87
2019-01-11T21:57:08.105Z,28.37
2019-01-11T21:59:37.207Z,25.30
2019-01-11T22:02:06.282Z,22.20
2019-01-11T22:04:35.392Z,22.17
2019-01-11T22:07:04.469Z,25.90
2019-01-11T22:09:33.525Z,28.63
2019-01-11T22:12:02.587Z,27.93
2019-01-11T22:14:31.690Z,30.07
2019-01-11T22:17:00.750Z,31.77
2019-01-11T22:19:29.812Z,31.70
2019-01-11T22:21:58.898Z,34.93
2019-01-11T22:27:23.754Z,35.60
2019-01-11T22:29:52.815Z,31.77
2019-01-11T22:32:21.877Z,29.20
2019-01-11T22:34:51.017Z,24.83
2019-01-11T22:37:20.094Z,23.00
2019-01-11T22:39:49.151Z,21.43
2019-01-11T22:42:18.411Z,19.10
2019-01-11T22:44:47.683Z,21.00
2019-01-11T22:47:16.730Z,18.20
2019-01-11T22:49:45.829Z,17.57
2019-01-11T22:52:14.888Z,16.93
2019-01-11T22:54:43.940Z,17.90
2019-01-11T22:57:13.586Z,21.23
2019-01-11T22:59:42.110Z,22.83
2019-01-11T23:02:11.169Z,23.90
2019-01-11T23:04:40.253Z,25.37
2019-01-11T23:07:09.306Z,26.40
2019-01-11T23:09:38.375Z,27.23
2019-01-11T23:12:09.370Z,22.00
2019-01-11T23:14:38.413Z,22.17
2019-01-11T23:17:07.467Z,21.20
2019-01-11T23:19:36.627Z,23.30
2019-01-11T23:22:05.685Z,21.70
2019-01-11T23:24:34.741Z,17.53
2019-01-11T23:27:03.888Z,16.80
2019-01-11T23:29:33.042Z,12.87
2019-01-11T23:32:02.110Z,12.13
2019-01-11T23:34:31.557Z,11.50
2019-01-11T23:37:00.605Z,9.13
2019-01-11T23:39:29.658Z,8.97
2019-01-11T23:41:58.746Z,8.83
2019-01-11T23:44:27.792Z,7.97
2019-01-11T23:46:56.844Z,7.60
2019-01-11T23:49:25.919Z,6.83
2019-01-11T23:51:54.983Z,6.83
2019-01-11T23:54:28.966Z,7.50
2019-01-11T23:56:58.020Z,7.80
2019-01-11T23:59:27.111Z,8.27
